sensor_id;sensor_type;location;lat;lon;timestamp;temperature;humidity
35085;SHT85;21267;51.032;6.998;2023-04-24T00:01:39;12.55;75.72
35085;SHT85;21267;51.032;6.998;2023-04-24T00:04:06;12.44;76.27
35085;SHT85;21267;51.032;6.998;2023-04-24T00:06:34;12.51;75.88
35085;SHT85;21267;51.032;6.998;2023-04-24T00:09:02;12.42;76.06
35085;SHT85;21267;51.032;6.998;2023-04-24T00:11:43;12.42;76.40
35085;SHT85;21267;51.032;6.998;2023-04-24T00:14:23;12.38;76.77
35085;SHT85;21267;51.032;6.998;2023-04-24T00:17:04;12.32;76.89
35085;SHT85;21267;51.032;6.998;2023-04-24T00:19:45;12.29;76.85
35085;SHT85;21267;51.032;6.998;2023-04-24T00:22:25;12.28;77.02
35085;SHT85;21267;51.032;6.998;2023-04-24T00:25:06;12.27;77.27
35085;SHT85;21267;51.032;6.998;2023-04-24T00:27:47;12.20;77.61
35085;SHT85;21267;51.032;6.998;2023-04-24T00:30:28;12.18;77.50
35085;SHT85;21267;51.032;6.998;2023-04-24T00:33:08;12.21;77.45
35085;SHT85;21267;51.032;6.998;2023-04-24T00:35:50;12.28;76.59
35085;SHT85;21267;51.032;6.998;2023-04-24T00:38:33;12.34;76.23
35085;SHT85;21267;51.032;6.998;2023-04-24T00:41:13;12.34;75.90
35085;SHT85;21267;51.032;6.998;2023-04-24T00:43:54;12.31;75.73
35085;SHT85;21267;51.032;6.998;2023-04-24T00:46:35;12.45;74.61
35085;SHT85;21267;51.032;6.998;2023-04-24T00:49:16;12.47;74.99
35085;SHT85;21267;51.032;6.998;2023-04-24T00:51:42;12.45;75.20
35085;SHT85;21267;51.032;6.998;2023-04-24T00:54:12;12.39;74.43
35085;SHT85;21267;51.032;6.998;2023-04-24T00:56:42;12.37;74.52
35085;SHT85;21267;51.032;6.998;2023-04-24T00:59:12;12.24;74.53
35085;SHT85;21267;51.032;6.998;2023-04-24T01:01:39;12.24;74.36
35085;SHT85;21267;51.032;6.998;2023-04-24T01:04:11;12.18;74.30
35085;SHT85;21267;51.032;6.998;2023-04-24T01:06:43;12.16;73.78
35085;SHT85;21267;51.032;6.998;2023-04-24T01:09:11;12.13;74.27
35085;SHT85;21267;51.032;6.998;2023-04-24T01:11:40;12.10;74.37
35085;SHT85;21267;51.032;6.998;2023-04-24T01:14:07;12.07;74.64
35085;SHT85;21267;51.032;6.998;2023-04-24T01:16:34;12.06;74.48
35085;SHT85;21267;51.032;6.998;2023-04-24T01:19:03;12.06;74.76
35085;SHT85;21267;51.032;6.998;2023-04-24T01:21:30;12.00;74.49
35085;SHT85;21267;51.032;6.998;2023-04-24T01:24:01;11.96;74.41
35085;SHT85;21267;51.032;6.998;2023-04-24T01:26:28;11.99;74.35
35085;SHT85;21267;51.032;6.998;2023-04-24T01:28:56;11.91;73.56
35085;SHT85;21267;51.032;6.998;2023-04-24T01:31:24;11.86;73.22
35085;SHT85;21267;51.032;6.998;2023-04-24T01:33:51;11.82;73.34
35085;SHT85;21267;51.032;6.998;2023-04-24T01:36:19;11.78;73.19
35085;SHT85;21267;51.032;6.998;2023-04-24T01:38:46;11.75;73.78
35085;SHT85;21267;51.032;6.998;2023-04-24T01:41:15;11.63;74.33
35085;SHT85;21267;51.032;6.998;2023-04-24T01:43:42;11.59;74.75
35085;SHT85;21267;51.032;6.998;2023-04-24T01:46:08;11.56;75.00
35085;SHT85;21267;51.032;6.998;2023-04-24T01:48:35;11.52;75.33
35085;SHT85;21267;51.032;6.998;2023-04-24T01:51:02;11.48;75.68
35085;SHT85;21267;51.032;6.998;2023-04-24T01:53:29;11.35;75.99
35085;SHT85;21267;51.032;6.998;2023-04-24T01:55:55;11.22;76.42
35085;SHT85;21267;51.032;6.998;2023-04-24T01:58:22;11.15;76.85
35085;SHT85;21267;51.032;6.998;2023-04-24T02:00:49;11.07;76.96
35085;SHT85;21267;51.032;6.998;2023-04-24T02:03:16;11.08;76.54
35085;SHT85;21267;51.032;6.998;2023-04-24T02:05:45;11.06;76.34
35085;SHT85;21267;51.032;6.998;2023-04-24T02:08:12;10.90;76.13
35085;SHT85;21267;51.032;6.998;2023-04-24T02:10:39;10.92;76.04
35085;SHT85;21267;51.032;6.998;2023-04-24T02:13:05;10.74;76.15
35085;SHT85;21267;51.032;6.998;2023-04-24T02:15:32;10.64;76.39
35085;SHT85;21267;51.032;6.998;2023-04-24T02:17:58;10.52;76.63
35085;SHT85;21267;51.032;6.998;2023-04-24T02:20:25;10.34;76.93
35085;SHT85;21267;51.032;6.998;2023-04-24T02:22:52;10.29;77.45
35085;SHT85;21267;51.032;6.998;2023-04-24T02:25:19;10.19;77.50
35085;SHT85;21267;51.032;6.998;2023-04-24T02:27:46;10.12;77.72
35085;SHT85;21267;51.032;6.998;2023-04-24T02:30:13;10.08;77.96
35085;SHT85;21267;51.032;6.998;2023-04-24T02:32:41;10.05;78.20
35085;SHT85;21267;51.032;6.998;2023-04-24T02:35:08;9.99;78.47
35085;SHT85;21267;51.032;6.998;2023-04-24T02:37:35;9.92;78.64
35085;SHT85;21267;51.032;6.998;2023-04-24T02:40:02;9.92;78.76
35085;SHT85;21267;51.032;6.998;2023-04-24T02:42:29;9.87;79.01
35085;SHT85;21267;51.032;6.998;2023-04-24T02:44:55;9.99;78.58
35085;SHT85;21267;51.032;6.998;2023-04-24T02:47:22;10.03;78.60
35085;SHT85;21267;51.032;6.998;2023-04-24T02:49:49;10.08;78.56
35085;SHT85;21267;51.032;6.998;2023-04-24T02:52:15;10.15;78.80
35085;SHT85;21267;51.032;6.998;2023-04-24T02:54:44;10.19;78.86
35085;SHT85;21267;51.032;6.998;2023-04-24T02:57:11;10.29;78.79
35085;SHT85;21267;51.032;6.998;2023-04-24T02:59:39;10.34;78.29
35085;SHT85;21267;51.032;6.998;2023-04-24T03:02:06;10.39;78.36
35085;SHT85;21267;51.032;6.998;2023-04-24T03:04:33;10.40;77.62
35085;SHT85;21267;51.032;6.998;2023-04-24T03:07:00;10.43;78.31
35085;SHT85;21267;51.032;6.998;2023-04-24T03:09:28;10.45;77.94
35085;SHT85;21267;51.032;6.998;2023-04-24T03:11:55;10.49;77.95
35085;SHT85;21267;51.032;6.998;2023-04-24T03:14:22;10.43;77.74
35085;SHT85;21267;51.032;6.998;2023-04-24T03:16:52;10.46;77.89
35085;SHT85;21267;51.032;6.998;2023-04-24T03:19:19;10.36;77.51
35085;SHT85;21267;51.032;6.998;2023-04-24T03:21:45;10.36;77.66
35085;SHT85;21267;51.032;6.998;2023-04-24T03:24:12;10.34;77.72
35085;SHT85;21267;51.032;6.998;2023-04-24T03:26:39;10.34;77.67
35085;SHT85;21267;51.032;6.998;2023-04-24T03:29:06;10.34;78.01
35085;SHT85;21267;51.032;6.998;2023-04-24T03:31:33;10.36;77.72
35085;SHT85;21267;51.032;6.998;2023-04-24T03:33:59;10.36;77.79
35085;SHT85;21267;51.032;6.998;2023-04-24T03:36:26;10.36;77.69
35085;SHT85;21267;51.032;6.998;2023-04-24T03:38:55;10.39;77.94
35085;SHT85;21267;51.032;6.998;2023-04-24T03:41:22;10.39;77.75
35085;SHT85;21267;51.032;6.998;2023-04-24T03:43:52;10.38;77.58
35085;SHT85;21267;51.032;6.998;2023-04-24T03:46:23;10.30;77.38
35085;SHT85;21267;51.032;6.998;2023-04-24T03:48:50;10.29;78.00
35085;SHT85;21267;51.032;6.998;2023-04-24T03:51:24;10.22;78.05
35085;SHT85;21267;51.032;6.998;2023-04-24T03:53:51;10.36;77.86
35085;SHT85;21267;51.032;6.998;2023-04-24T03:56:20;10.30;77.91
35085;SHT85;21267;51.032;6.998;2023-04-24T03:58:47;10.26;77.68
35085;SHT85;21267;51.032;6.998;2023-04-24T04:01:13;10.22;77.70
35085;SHT85;21267;51.032;6.998;2023-04-24T04:03:42;10.18;77.67
35085;SHT85;21267;51.032;6.998;2023-04-24T04:06:10;10.16;77.37
35085;SHT85;21267;51.032;6.998;2023-04-24T04:08:37;10.16;77.39
35085;SHT85;21267;51.032;6.998;2023-04-24T04:11:04;10.08;77.72
35085;SHT85;21267;51.032;6.998;2023-04-24T04:13:30;10.13;77.55
35085;SHT85;21267;51.032;6.998;2023-04-24T04:15:57;10.05;77.46
35085;SHT85;21267;51.032;6.998;2023-04-24T04:18:24;10.02;77.57
35085;SHT85;21267;51.032;6.998;2023-04-24T04:20:50;10.02;77.42
35085;SHT85;21267;51.032;6.998;2023-04-24T04:23:17;10.05;77.38
35085;SHT85;21267;51.032;6.998;2023-04-24T04:25:44;10.02;77.41
35085;SHT85;21267;51.032;6.998;2023-04-24T04:28:12;9.92;77.52
35085;SHT85;21267;51.032;6.998;2023-04-24T04:30:43;10.01;77.44
35085;SHT85;21267;51.032;6.998;2023-04-24T04:33:09;9.98;77.44
35085;SHT85;21267;51.032;6.998;2023-04-24T04:35:36;9.94;77.52
35085;SHT85;21267;51.032;6.998;2023-04-24T04:38:05;9.98;77.83
35085;SHT85;21267;51.032;6.998;2023-04-24T04:40:35;9.92;77.91
35085;SHT85;21267;51.032;6.998;2023-04-24T04:43:02;9.92;78.11
35085;SHT85;21267;51.032;6.998;2023-04-24T04:45:29;9.97;78.12
35085;SHT85;21267;51.032;6.998;2023-04-24T04:47:59;9.99;78.02
35085;SHT85;21267;51.032;6.998;2023-04-24T04:50:27;9.97;78.15
35085;SHT85;21267;51.032;6.998;2023-04-24T04:52:56;9.97;78.25
35085;SHT85;21267;51.032;6.998;2023-04-24T04:55:26;9.94;78.25
35085;SHT85;21267;51.032;6.998;2023-04-24T04:57:54;9.99;77.84
35085;SHT85;21267;51.032;6.998;2023-04-24T05:00:22;9.92;78.09
35085;SHT85;21267;51.032;6.998;2023-04-24T05:02:51;9.95;78.01
35085;SHT85;21267;51.032;6.998;2023-04-24T05:05:19;10.01;78.03
35085;SHT85;21267;51.032;6.998;2023-04-24T05:07:45;10.03;78.19
35085;SHT85;21267;51.032;6.998;2023-04-24T05:10:12;9.98;78.19
35085;SHT85;21267;51.032;6.998;2023-04-24T05:12:39;9.99;77.90
35085;SHT85;21267;51.032;6.998;2023-04-24T05:15:06;10.08;77.83
35085;SHT85;21267;51.032;6.998;2023-04-24T05:17:35;10.08;77.90
35085;SHT85;21267;51.032;6.998;2023-04-24T05:20:03;10.09;77.55
35085;SHT85;21267;51.032;6.998;2023-04-24T05:22:32;10.06;77.71
35085;SHT85;21267;51.032;6.998;2023-04-24T05:24:58;10.09;77.62
35085;SHT85;21267;51.032;6.998;2023-04-24T05:27:25;10.12;77.69
35085;SHT85;21267;51.032;6.998;2023-04-24T05:29:57;10.06;77.93
35085;SHT85;21267;51.032;6.998;2023-04-24T05:32:31;10.02;77.91
35085;SHT85;21267;51.032;6.998;2023-04-24T05:34:58;9.99;78.49
35085;SHT85;21267;51.032;6.998;2023-04-24T05:37:25;9.84;79.65
35085;SHT85;21267;51.032;6.998;2023-04-24T05:39:52;9.78;80.88
35085;SHT85;21267;51.032;6.998;2023-04-24T05:42:19;9.82;81.35
35085;SHT85;21267;51.032;6.998;2023-04-24T05:44:45;9.74;81.44
35085;SHT85;21267;51.032;6.998;2023-04-24T05:47:12;9.73;81.95
35085;SHT85;21267;51.032;6.998;2023-04-24T05:49:39;9.75;81.55
35085;SHT85;21267;51.032;6.998;2023-04-24T05:52:06;9.70;82.72
35085;SHT85;21267;51.032;6.998;2023-04-24T05:54:35;9.73;82.68
35085;SHT85;21267;51.032;6.998;2023-04-24T05:57:02;9.71;82.37
35085;SHT85;21267;51.032;6.998;2023-04-24T05:59:36;9.70;81.82
35085;SHT85;21267;51.032;6.998;2023-04-24T06:02:12;9.82;81.70
35085;SHT85;21267;51.032;6.998;2023-04-24T06:04:39;9.90;81.56
35085;SHT85;21267;51.032;6.998;2023-04-24T06:07:07;9.91;81.42
35085;SHT85;21267;51.032;6.998;2023-04-24T06:09:34;9.95;80.51
35085;SHT85;21267;51.032;6.998;2023-04-24T06:12:01;10.01;80.84
35085;SHT85;21267;51.032;6.998;2023-04-24T06:14:32;10.02;80.78
35085;SHT85;21267;51.032;6.998;2023-04-24T06:16:59;9.88;82.00
35085;SHT85;21267;51.032;6.998;2023-04-24T06:19:26;9.71;83.09
35085;SHT85;21267;51.032;6.998;2023-04-24T06:21:52;9.55;83.61
35085;SHT85;21267;51.032;6.998;2023-04-24T06:24:19;9.27;84.02
35085;SHT85;21267;51.032;6.998;2023-04-24T06:26:46;9.22;84.27
35085;SHT85;21267;51.032;6.998;2023-04-24T06:33:40;9.29;84.12
35085;SHT85;21267;51.032;6.998;2023-04-24T06:36:23;9.39;83.55
35085;SHT85;21267;51.032;6.998;2023-04-24T06:39:03;9.34;83.72
35085;SHT85;21267;51.032;6.998;2023-04-24T06:41:33;9.27;84.43
35085;SHT85;21267;51.032;6.998;2023-04-24T06:44:00;9.20;84.61
35085;SHT85;21267;51.032;6.998;2023-04-24T06:46:27;9.18;85.01
35085;SHT85;21267;51.032;6.998;2023-04-24T06:48:55;9.22;85.25
35085;SHT85;21267;51.032;6.998;2023-04-24T06:51:26;9.19;84.68
35085;SHT85;21267;51.032;6.998;2023-04-24T06:53:54;9.12;85.62
35085;SHT85;21267;51.032;6.998;2023-04-24T06:56:25;9.15;85.95
35085;SHT85;21267;51.032;6.998;2023-04-24T06:58:55;9.15;86.83
35085;SHT85;21267;51.032;6.998;2023-04-24T07:01:24;9.12;87.27
35085;SHT85;21267;51.032;6.998;2023-04-24T07:03:51;9.05;87.04
35085;SHT85;21267;51.032;6.998;2023-04-24T07:06:18;9.03;87.73
35085;SHT85;21267;51.032;6.998;2023-04-24T07:08:48;8.92;87.87
35085;SHT85;21267;51.032;6.998;2023-04-24T07:11:16;8.88;87.07
35085;SHT85;21267;51.032;6.998;2023-04-24T07:13:43;8.79;88.30
35085;SHT85;21267;51.032;6.998;2023-04-24T07:16:10;8.71;88.37
35085;SHT85;21267;51.032;6.998;2023-04-24T07:18:38;8.60;88.58
35085;SHT85;21267;51.032;6.998;2023-04-24T07:21:07;8.55;88.96
35085;SHT85;21267;51.032;6.998;2023-04-24T07:23:34;8.47;89.75
35085;SHT85;21267;51.032;6.998;2023-04-24T07:26:01;8.36;90.39
35085;SHT85;21267;51.032;6.998;2023-04-24T07:28:31;8.36;91.18
35085;SHT85;21267;51.032;6.998;2023-04-24T07:30:58;8.38;91.74
35085;SHT85;21267;51.032;6.998;2023-04-24T07:33:26;8.37;92.19
35085;SHT85;21267;51.032;6.998;2023-04-24T07:36:07;8.43;92.39
35085;SHT85;21267;51.032;6.998;2023-04-24T07:38:42;8.36;92.12
35085;SHT85;21267;51.032;6.998;2023-04-24T07:41:15;8.40;92.01
35085;SHT85;21267;51.032;6.998;2023-04-24T07:43:42;8.40;92.01
35085;SHT85;21267;51.032;6.998;2023-04-24T07:46:09;8.29;90.74
35085;SHT85;21267;51.032;6.998;2023-04-24T07:48:49;8.13;91.23
35085;SHT85;21267;51.032;6.998;2023-04-24T07:51:37;8.10;91.93
35085;SHT85;21267;51.032;6.998;2023-04-24T07:54:06;8.12;92.27
35085;SHT85;21267;51.032;6.998;2023-04-24T07:56:33;8.04;92.07
35085;SHT85;21267;51.032;6.998;2023-04-24T07:59:33;8.02;91.93
35085;SHT85;21267;51.032;6.998;2023-04-24T08:02:09;7.94;92.10
35085;SHT85;21267;51.032;6.998;2023-04-24T08:04:37;7.86;92.59
35085;SHT85;21267;51.032;6.998;2023-04-24T08:07:08;7.81;92.77
35085;SHT85;21267;51.032;6.998;2023-04-24T08:09:35;7.76;92.61
35085;SHT85;21267;51.032;6.998;2023-04-24T08:12:01;7.68;92.33
35085;SHT85;21267;51.032;6.998;2023-04-24T08:14:30;7.65;92.68
35085;SHT85;21267;51.032;6.998;2023-04-24T08:16:57;7.58;92.81
35085;SHT85;21267;51.032;6.998;2023-04-24T08:19:25;7.55;92.48
35085;SHT85;21267;51.032;6.998;2023-04-24T08:21:53;7.54;93.13
35085;SHT85;21267;51.032;6.998;2023-04-24T08:24:20;7.45;92.95
35085;SHT85;21267;51.032;6.998;2023-04-24T08:26:47;7.51;92.70
35085;SHT85;21267;51.032;6.998;2023-04-24T08:29:22;7.41;92.24
35085;SHT85;21267;51.032;6.998;2023-04-24T08:32:16;7.47;92.75
35085;SHT85;21267;51.032;6.998;2023-04-24T08:35:23;7.42;92.25
35085;SHT85;21267;51.032;6.998;2023-04-24T08:38:04;7.38;92.57
35085;SHT85;21267;51.032;6.998;2023-04-24T08:40:33;7.40;92.54
35085;SHT85;21267;51.032;6.998;2023-04-24T08:43:16;7.40;92.37
35085;SHT85;21267;51.032;6.998;2023-04-24T08:45:46;7.38;92.61
35085;SHT85;21267;51.032;6.998;2023-04-24T08:48:26;7.32;92.25
35085;SHT85;21267;51.032;6.998;2023-04-24T08:50:58;7.40;92.50
35085;SHT85;21267;51.032;6.998;2023-04-24T08:53:39;7.38;92.16
35085;SHT85;21267;51.032;6.998;2023-04-24T08:56:11;7.34;92.49
35085;SHT85;21267;51.032;6.998;2023-04-24T08:59:03;7.44;92.47
35085;SHT85;21267;51.032;6.998;2023-04-24T09:02:03;7.48;93.11
35085;SHT85;21267;51.032;6.998;2023-04-24T09:04:37;7.48;92.85
35085;SHT85;21267;51.032;6.998;2023-04-24T09:07:12;7.55;92.56
35085;SHT85;21267;51.032;6.998;2023-04-24T09:09:40;7.59;92.48
35085;SHT85;21267;51.032;6.998;2023-04-24T09:12:41;7.64;92.31
35085;SHT85;21267;51.032;6.998;2023-04-24T09:15:15;7.68;92.97
35085;SHT85;21267;51.032;6.998;2023-04-24T09:17:50;7.64;92.57
35085;SHT85;21267;51.032;6.998;2023-04-24T09:20:56;7.61;92.65
35085;SHT85;21267;51.032;6.998;2023-04-24T09:23:42;7.64;92.83
35085;SHT85;21267;51.032;6.998;2023-04-24T09:26:28;7.71;92.45
35085;SHT85;21267;51.032;6.998;2023-04-24T09:29:07;7.72;92.87
35085;SHT85;21267;51.032;6.998;2023-04-24T09:31:37;7.73;92.93
35085;SHT85;21267;51.032;6.998;2023-04-24T09:34:07;7.72;92.56
35085;SHT85;21267;51.032;6.998;2023-04-24T09:36:47;7.76;91.89
35085;SHT85;21267;51.032;6.998;2023-04-24T09:39:17;7.76;91.99
35085;SHT85;21267;51.032;6.998;2023-04-24T09:41:57;7.78;92.44
35085;SHT85;21267;51.032;6.998;2023-04-24T09:44:28;7.85;92.70
35085;SHT85;21267;51.032;6.998;2023-04-24T09:47:08;7.83;92.48
35085;SHT85;21267;51.032;6.998;2023-04-24T09:49:36;7.85;92.32
35085;SHT85;21267;51.032;6.998;2023-04-24T09:52:16;7.85;92.77
35085;SHT85;21267;51.032;6.998;2023-04-24T09:54:53;7.96;92.99
35085;SHT85;21267;51.032;6.998;2023-04-24T09:57:24;7.99;93.00
35085;SHT85;21267;51.032;6.998;2023-04-24T09:59:53;8.10;93.46
35085;SHT85;21267;51.032;6.998;2023-04-24T10:02:20;8.10;93.33
35085;SHT85;21267;51.032;6.998;2023-04-24T10:05:01;8.17;93.02
35085;SHT85;21267;51.032;6.998;2023-04-24T10:07:32;8.23;93.37
35085;SHT85;21267;51.032;6.998;2023-04-24T10:10:06;8.31;93.43
35085;SHT85;21267;51.032;6.998;2023-04-24T10:12:34;8.44;93.09
35085;SHT85;21267;51.032;6.998;2023-04-24T10:15:18;8.48;92.89
35085;SHT85;21267;51.032;6.998;2023-04-24T10:17:49;8.53;92.86
35085;SHT85;21267;51.032;6.998;2023-04-24T10:20:37;8.64;92.43
35085;SHT85;21267;51.032;6.998;2023-04-24T10:23:20;8.95;92.59
35085;SHT85;21267;51.032;6.998;2023-04-24T10:25:48;8.85;91.33
35085;SHT85;21267;51.032;6.998;2023-04-24T10:28:25;8.93;90.58
35085;SHT85;21267;51.032;6.998;2023-04-24T10:30:54;9.09;91.09
35085;SHT85;21267;51.032;6.998;2023-04-24T10:33:23;9.19;90.62
35085;SHT85;21267;51.032;6.998;2023-04-24T10:35:56;9.26;90.54
35085;SHT85;21267;51.032;6.998;2023-04-24T10:38:28;9.30;89.89
35085;SHT85;21267;51.032;6.998;2023-04-24T10:41:12;9.34;90.06
35085;SHT85;21267;51.032;6.998;2023-04-24T10:44:11;9.23;89.08
35085;SHT85;21267;51.032;6.998;2023-04-24T10:46:55;9.30;89.82
35085;SHT85;21267;51.032;6.998;2023-04-24T10:49:31;9.37;89.53
35085;SHT85;21267;51.032;6.998;2023-04-24T10:52:13;9.37;89.19
35085;SHT85;21267;51.032;6.998;2023-04-24T10:54:48;9.27;88.81
35085;SHT85;21267;51.032;6.998;2023-04-24T11:00:21;9.29;89.01
35085;SHT85;21267;51.032;6.998;2023-04-24T11:03:04;9.16;88.25
35085;SHT85;21267;51.032;6.998;2023-04-24T11:08:43;9.02;88.76
35085;SHT85;21267;51.032;6.998;2023-04-24T11:11:13;9.05;89.27
35085;SHT85;21267;51.032;6.998;2023-04-24T11:16:26;9.02;88.09
35085;SHT85;21267;51.032;6.998;2023-04-24T11:22:02;9.03;87.73
35085;SHT85;21267;51.032;6.998;2023-04-24T11:27:13;9.26;86.99
35085;SHT85;21267;51.032;6.998;2023-04-24T11:34:51;10.12;85.79
35085;SHT85;21267;51.032;6.998;2023-04-24T11:37:18;10.30;85.08
35085;SHT85;21267;51.032;6.998;2023-04-24T11:39:45;10.61;84.46
35085;SHT85;21267;51.032;6.998;2023-04-24T11:42:15;10.57;84.10
35085;SHT85;21267;51.032;6.998;2023-04-24T11:44:44;10.50;83.03
35085;SHT85;21267;51.032;6.998;2023-04-24T11:47:15;10.45;83.19
35085;SHT85;21267;51.032;6.998;2023-04-24T11:49:57;10.49;83.75
35085;SHT85;21267;51.032;6.998;2023-04-24T11:52:27;10.43;82.88
35085;SHT85;21267;51.032;6.998;2023-04-24T11:54:54;10.52;83.37
35085;SHT85;21267;51.032;6.998;2023-04-24T11:57:22;10.46;81.79
35085;SHT85;21267;51.032;6.998;2023-04-24T11:59:49;10.77;82.73
35085;SHT85;21267;51.032;6.998;2023-04-24T12:02:21;10.87;81.47
35085;SHT85;21267;51.032;6.998;2023-04-24T12:04:50;10.90;80.88
35085;SHT85;21267;51.032;6.998;2023-04-24T12:07:19;10.74;80.52
35085;SHT85;21267;51.032;6.998;2023-04-24T12:09:50;10.84;81.06
35085;SHT85;21267;51.032;6.998;2023-04-24T12:12:27;10.55;80.55
35085;SHT85;21267;51.032;6.998;2023-04-24T12:14:58;10.52;80.74
35085;SHT85;21267;51.032;6.998;2023-04-24T12:17:31;10.46;80.35
35085;SHT85;21267;51.032;6.998;2023-04-24T12:20:05;10.43;80.37
35085;SHT85;21267;51.032;6.998;2023-04-24T12:22:55;10.32;81.05
35085;SHT85;21267;51.032;6.998;2023-04-24T12:25:28;10.26;80.56
35085;SHT85;21267;51.032;6.998;2023-04-24T12:30:47;10.23;79.76
35085;SHT85;21267;51.032;6.998;2023-04-24T12:33:19;10.30;79.22
35085;SHT85;21267;51.032;6.998;2023-04-24T12:35:50;10.40;79.17
35085;SHT85;21267;51.032;6.998;2023-04-24T12:38:22;10.40;78.38
35085;SHT85;21267;51.032;6.998;2023-04-24T12:41:06;10.48;78.14
35085;SHT85;21267;51.032;6.998;2023-04-24T12:43:33;10.70;77.24
35085;SHT85;21267;51.032;6.998;2023-04-24T12:46:02;11.08;76.14
35085;SHT85;21267;51.032;6.998;2023-04-24T12:48:29;11.34;74.74
35085;SHT85;21267;51.032;6.998;2023-04-24T12:50:58;11.63;73.93
35085;SHT85;21267;51.032;6.998;2023-04-24T12:53:28;11.48;73.41
35085;SHT85;21267;51.032;6.998;2023-04-24T12:55:58;11.46;72.56
35085;SHT85;21267;51.032;6.998;2023-04-24T12:58:25;11.52;73.24
35085;SHT85;21267;51.032;6.998;2023-04-24T13:00:52;11.86;73.22
35085;SHT85;21267;51.032;6.998;2023-04-24T13:03:19;12.00;72.48
35085;SHT85;21267;51.032;6.998;2023-04-24T13:05:46;12.14;70.52
35085;SHT85;21267;51.032;6.998;2023-04-24T13:08:16;12.03;68.60
35085;SHT85;21267;51.032;6.998;2023-04-24T13:10:43;11.91;69.25
35085;SHT85;21267;51.032;6.998;2023-04-24T13:13:14;12.07;70.06
35085;SHT85;21267;51.032;6.998;2023-04-24T13:15:41;12.51;68.73
35085;SHT85;21267;51.032;6.998;2023-04-24T13:18:08;12.76;69.25
35085;SHT85;21267;51.032;6.998;2023-04-24T13:20:35;12.44;69.27
35085;SHT85;21267;51.032;6.998;2023-04-24T13:23:02;12.37;69.36
35085;SHT85;21267;51.032;6.998;2023-04-24T13:25:34;12.35;68.86
35085;SHT85;21267;51.032;6.998;2023-04-24T13:28:02;12.16;69.14
35085;SHT85;21267;51.032;6.998;2023-04-24T13:30:29;12.11;69.44
35085;SHT85;21267;51.032;6.998;2023-04-24T13:32:56;12.24;69.46
35085;SHT85;21267;51.032;6.998;2023-04-24T13:35:23;12.20;68.78
35085;SHT85;21267;51.032;6.998;2023-04-24T13:37:52;12.52;68.21
35085;SHT85;21267;51.032;6.998;2023-04-24T13:40:19;13.44;66.50
35085;SHT85;21267;51.032;6.998;2023-04-24T13:42:47;13.10;67.40
35085;SHT85;21267;51.032;6.998;2023-04-24T13:45:14;12.76;67.71
35085;SHT85;21267;51.032;6.998;2023-04-24T13:47:50;12.65;67.97
35085;SHT85;21267;51.032;6.998;2023-04-24T13:50:18;12.35;68.26
35085;SHT85;21267;51.032;6.998;2023-04-24T13:52:45;12.25;68.86
35085;SHT85;21267;51.032;6.998;2023-04-24T13:55:12;11.99;69.49
35085;SHT85;21267;51.032;6.998;2023-04-24T13:57:39;11.87;70.44
35085;SHT85;21267;51.032;6.998;2023-04-24T14:00:06;11.67;69.50
35085;SHT85;21267;51.032;6.998;2023-04-24T14:02:39;11.45;68.72
35085;SHT85;21267;51.032;6.998;2023-04-24T14:05:06;11.46;69.42
35085;SHT85;21267;51.032;6.998;2023-04-24T14:07:33;11.55;69.74
35085;SHT85;21267;51.032;6.998;2023-04-24T14:09:59;11.75;68.87
35085;SHT85;21267;51.032;6.998;2023-04-24T14:12:27;12.65;67.88
35085;SHT85;21267;51.032;6.998;2023-04-24T14:14:57;12.73;67.01
35085;SHT85;21267;51.032;6.998;2023-04-24T14:17:24;12.89;66.83
35085;SHT85;21267;51.032;6.998;2023-04-24T14:19:52;13.02;64.84
35085;SHT85;21267;51.032;6.998;2023-04-24T14:22:22;12.72;66.50
35085;SHT85;21267;51.032;6.998;2023-04-24T14:24:49;12.72;66.98
35085;SHT85;21267;51.032;6.998;2023-04-24T14:27:16;12.52;66.66
35085;SHT85;21267;51.032;6.998;2023-04-24T14:29:43;12.73;65.98
35085;SHT85;21267;51.032;6.998;2023-04-24T14:32:11;13.16;64.68
35085;SHT85;21267;51.032;6.998;2023-04-24T14:34:41;13.46;64.36
35085;SHT85;21267;51.032;6.998;2023-04-24T14:37:08;13.38;64.12
35085;SHT85;21267;51.032;6.998;2023-04-24T14:39:35;13.67;64.23
35085;SHT85;21267;51.032;6.998;2023-04-24T14:42:01;13.68;64.43
35085;SHT85;21267;51.032;6.998;2023-04-24T14:44:29;13.30;64.41
35085;SHT85;21267;51.032;6.998;2023-04-24T14:46:58;13.20;65.30
35085;SHT85;21267;51.032;6.998;2023-04-24T14:49:25;13.19;65.85
35085;SHT85;21267;51.032;6.998;2023-04-24T14:51:58;13.17;66.94
35085;SHT85;21267;51.032;6.998;2023-04-24T14:54:25;13.40;66.31
35085;SHT85;21267;51.032;6.998;2023-04-24T14:56:56;12.97;66.33
35085;SHT85;21267;51.032;6.998;2023-04-24T14:59:36;12.73;66.73
35085;SHT85;21267;51.032;6.998;2023-04-24T15:02:05;12.57;65.58
35085;SHT85;21267;51.032;6.998;2023-04-24T15:04:42;12.34;64.43
35085;SHT85;21267;51.032;6.998;2023-04-24T15:07:12;12.49;65.25
35085;SHT85;21267;51.032;6.998;2023-04-24T15:09:39;12.65;64.33
35085;SHT85;21267;51.032;6.998;2023-04-24T15:12:06;12.75;64.94
35085;SHT85;21267;51.032;6.998;2023-04-24T15:14:33;13.54;63.22
35085;SHT85;21267;51.032;6.998;2023-04-24T15:17:00;13.96;62.14
35085;SHT85;21267;51.032;6.998;2023-04-24T15:19:26;13.96;61.39
35085;SHT85;21267;51.032;6.998;2023-04-24T15:21:53;14.98;59.66
35085;SHT85;21267;51.032;6.998;2023-04-24T15:24:20;14.33;59.37
35085;SHT85;21267;51.032;6.998;2023-04-24T15:26:49;14.30;60.48
35085;SHT85;21267;51.032;6.998;2023-04-24T15:29:16;13.67;61.12
35085;SHT85;21267;51.032;6.998;2023-04-24T15:31:42;13.62;61.42
35085;SHT85;21267;51.032;6.998;2023-04-24T15:34:09;13.40;61.64
35085;SHT85;21267;51.032;6.998;2023-04-24T15:36:38;13.33;61.88
35085;SHT85;21267;51.032;6.998;2023-04-24T15:39:05;14.06;60.54
35085;SHT85;21267;51.032;6.998;2023-04-24T15:41:37;13.74;60.24
35085;SHT85;21267;51.032;6.998;2023-04-24T15:44:04;13.88;61.01
35085;SHT85;21267;51.032;6.998;2023-04-24T15:46:34;13.51;61.10
35085;SHT85;21267;51.032;6.998;2023-04-24T15:49:03;13.37;61.79
35085;SHT85;21267;51.032;6.998;2023-04-24T15:51:29;13.33;61.42
35085;SHT85;21267;51.032;6.998;2023-04-24T15:53:57;13.12;61.75
35085;SHT85;21267;51.032;6.998;2023-04-24T15:56:26;13.07;62.38
35085;SHT85;21267;51.032;6.998;2023-04-24T15:58:57;13.17;61.73
35085;SHT85;21267;51.032;6.998;2023-04-24T16:01:23;13.07;60.88
35085;SHT85;21267;51.032;6.998;2023-04-24T16:03:51;12.89;61.81
35085;SHT85;21267;51.032;6.998;2023-04-24T16:06:19;12.78;62.38
35085;SHT85;21267;51.032;6.998;2023-04-24T16:08:46;12.90;62.26
35085;SHT85;21267;51.032;6.998;2023-04-24T16:11:13;13.28;61.83
35085;SHT85;21267;51.032;6.998;2023-04-24T16:13:42;13.12;62.57
35085;SHT85;21267;51.032;6.998;2023-04-24T16:16:10;13.19;62.29
35085;SHT85;21267;51.032;6.998;2023-04-24T16:18:40;12.99;61.75
35085;SHT85;21267;51.032;6.998;2023-04-24T16:21:07;12.80;62.16
35085;SHT85;21267;51.032;6.998;2023-04-24T16:23:34;12.97;61.76
35085;SHT85;21267;51.032;6.998;2023-04-24T16:26:01;12.85;62.10